• Join FlightAware (Why Join?)
  • Login
  • US Flag 
12:51AM EDT


 

Airport Tracker/Info


-or-


 

Live Flight TrackerFlight Track Log ✈ N238BG ✈ 04-Aug-2013 ✈ VVCR / CXR - KTKI

Flight Track Log - Related Links

Times and Time Zones

All times are in EDT time to prevent confusion due to time zone crossing. See the N238BG flight status page for this flight to view local times or setup timezone preferences in your user account.

Time Position Orientation Groundspeed Altitude Reporting Facility
EDT Latitude Longitude Course Direction KTS MPH feet Rate Location/Type
05:38PM 41.4997 -81.1875 28° Northeast 334 384 34,000  Level Cleveland Center
05:39PM 41.9392 -79.9133 65° Northeast 334 384 14,200 -9,420 Descending Cleveland Center
05:40PM 41.9022 -80.0083 242° Southwest 290 334 15,200 960 Climbing Cleveland Center
05:41PM 41.8653 -80.0981 241° Southwest 276 318 16,200 960 Climbing Cleveland Center
05:42PM 41.8258 -80.1931 241° Southwest 271 312 17,200 1,680 Climbing Cleveland Center
05:43PM 12.3682 109.4189 28° Northeast  Level Estimated
05:43PM 41.7992 -80.2711 245° Southwest 255 293 19,600  Level Cleveland Center
05:44PM 41.7700 -80.3494 243° Southwest 236 272 20,400 1,020 Climbing Cleveland Center
05:45PM 41.7411 -80.4244 243° Southwest 236 272 21,700 1,380 Climbing Cleveland Center
05:46PM 41.7078 -80.4969 238° Southwest 236 272 23,200 1,320 Climbing Cleveland Center
05:47PM 41.6786 -80.5636 240° Southwest 224 258 24,400 960 Climbing Cleveland Center
05:48PM 41.6472 -80.6358 240° Southwest 224 258 25,200 720 Climbing Cleveland Center
05:49PM 41.6139 -80.7164 241° Southwest 241 277 25,900 660 Climbing Cleveland Center
05:50PM 41.5825 -80.7942 242° Southwest 246 283 26,600 600 Climbing Cleveland Center
05:51PM 41.5553 -80.8633 242° Southwest 251 289 27,200 600 Climbing Cleveland Center
05:52PM 41.5217 -80.9464 242° Southwest 246 283 27,900 660 Climbing Cleveland Center
05:53PM 41.4900 -81.0239 241° Southwest 246 283 28,600 600 Climbing Cleveland Center
05:54PM 41.4564 -81.1067 242° Southwest 246 283 29,200 720 Climbing Cleveland Center
05:55PM 41.4206 -81.1839 238° Southwest 246 283 30,100 780 Climbing Cleveland Center
05:56PM 41.3889 -81.2611 241° Southwest 246 283 30,800 660 Climbing Cleveland Center
05:57PM 41.3550 -81.3439 241° Southwest 246 283 31,500 600 Climbing Cleveland Center
05:58PM 41.3317 -81.3989 241° Southwest 232 267 32,100 600 Climbing Cleveland Center
05:59PM 41.3039 -81.4731 244° Southwest 217 250 32,800 420 Climbing Cleveland Center
06:00PM 41.2764 -81.5419 242° Southwest 217 250 33,000 60 Climbing Cleveland Center
06:01PM 41.2467 -81.6158 242° Southwest 222 255 33,000  Level Cleveland Center
06:02PM 41.2125 -81.6983 241° Southwest 232 267 33,000 -60 Level Cleveland Center
06:03PM 41.1783 -81.7806 241° Southwest 243 280 32,900  Descending Cleveland Center
06:04PM 41.1439 -81.8597 240° Southwest 248 285 33,000 420 Climbing Cleveland Center
06:05PM 41.1075 -81.9444 240° Southwest 268 308 33,800 1,020 Climbing Cleveland Center
06:06PM 41.0775 -82.0156 241° Southwest 245 282 35,100 840 Climbing Cleveland Center
06:07PM 41.0433 -82.0864 237° Southwest 227 261 35,500 360 Climbing Cleveland Center
06:08PM 41.0111 -82.1544 238° Southwest 221 254 35,900 600 Climbing Cleveland Center
06:09PM 40.9831 -82.2225 241° Southwest 221 254 36,700 960 Climbing Cleveland Center
06:10PM 40.9633 -82.2797 245° Southwest 194 223 37,900 600 Climbing Cleveland Center
06:11PM 40.9461 -82.3258 244° Southwest 160 184 38,000  Climbing Cleveland Center
06:12PM 40.9203 -82.3803 238° Southwest 161 185 38,000  Level Cleveland Center
06:13PM 40.8922 -82.4344 236° Southwest 173 199 38,000  Level Cleveland Center
06:14PM 40.8619 -82.4967 237° Southwest 190 219 38,000  Level Cleveland Center
06:15PM 40.8358 -82.5564 240° Southwest 203 234 38,000  Level Cleveland Center
06:16PM 40.8075 -82.6294 243° Southwest 216 249 38,000  Level Cleveland Center
06:18PM 40.7617 -82.7394 241° Southwest 236 272 38,000  Level Indianapolis Center
06:19PM 40.7278 -82.8197 241° Southwest 247 284 38,100 240 Climbing Indianapolis Center
06:20PM 40.6967 -82.8944 241° Southwest 234 269 38,600 540 Climbing Indianapolis Center
06:21PM 40.6681 -82.9672 243° Southwest 224 258 39,300 660 Climbing Indianapolis Center
06:22PM 40.6344 -83.0411 239° Southwest 203 234 40,000 300 Climbing Indianapolis Center
06:23PM 40.6025 -83.1006 235° Southwest 196 226 40,000  Level Indianapolis Center
06:24PM 40.5719 -83.1628 237° Southwest 201 231 40,000 -60 Level Indianapolis Center
06:25PM 40.5411 -83.2300 239° Southwest 211 243 39,900  Descending Indianapolis Center
06:26PM 40.5103 -83.2997 240° Southwest 218 251 40,000  Climbing Indianapolis Center
06:27PM 40.4803 -83.3722 241° Southwest 223 257 40,000  Level Indianapolis Center
06:28PM 40.4494 -83.4464 241° Southwest 227 261 40,000  Level Indianapolis Center
06:29PM 40.4150 -83.5211 239° Southwest 235 270 40,000  Level Indianapolis Center
06:30PM 40.3808 -83.5975 240° Southwest 240 276 40,000  Level Indianapolis Center
06:31PM 40.3453 -83.6778 240° Southwest 249 287 40,000  Level Indianapolis Center
06:32PM 40.3094 -83.7558 239° Southwest 250 288 40,000  Level Indianapolis Center
06:33PM 40.2722 -83.8358 239° Southwest 253 291 40,000  Level Indianapolis Center
06:34PM 40.2364 -83.9144 239° Southwest 254 292 40,000  Level Indianapolis Center
06:35PM 40.1933 -84.0100 239° Southwest 255 293 40,000  Level Indianapolis Center
06:36PM 40.1569 -84.0911 240° Southwest 259 298 40,000  Level Indianapolis Center
06:37PM 40.1194 -84.1714 239° Southwest 259 298 40,000  Level Indianapolis Center
06:38PM 40.0819 -84.2525 239° Southwest 262 302 40,000  Level Indianapolis Center
06:39PM 40.0450 -84.3328 239° Southwest 260 299 40,000  Level Indianapolis Center
06:40PM 40.0078 -84.4136 239° Southwest 260 299 40,000 -60 Level Indianapolis Center
06:41PM 39.9700 -84.4939 238° Southwest 259 298 39,900  Descending Indianapolis Center
06:42PM 39.9314 -84.5758 238° Southwest 265 305 40,000  Climbing Indianapolis Center
06:43PM 39.8867 -84.6731 239° Southwest 263 303 40,000  Level Indianapolis Center
06:44PM 39.8500 -84.7536 239° Southwest 259 298 40,000  Level Indianapolis Center
06:45PM 39.8111 -84.8342 238° Southwest 262 302 40,000  Level Indianapolis Center
06:46PM 39.7742 -84.9136 239° Southwest 259 298 40,000  Level Indianapolis Center
06:47PM 39.7333 -84.9922 236° Southwest 261 300 40,000  Level Indianapolis Center
06:48PM 39.6953 -85.0742 239° Southwest 265 305 40,000  Level Indianapolis Center
06:49PM 39.6572 -85.1564 239° Southwest 265 305 40,000  Level Indianapolis Center
06:50PM 39.6108 -85.2558 239° Southwest 268 308 40,000  Level Indianapolis Center
06:51PM 39.5717 -85.3383 238° Southwest 270 311 40,000  Level Indianapolis Center
06:53PM 39.5331 -85.4208 239° Southwest 268 308 40,000  Level Indianapolis Center
06:54PM 39.4928 -85.5036 238° Southwest 271 312 40,000  Level Indianapolis Center
06:55PM 39.4536 -85.5861 238° Southwest 270 311 40,000  Level Indianapolis Center
06:56PM 39.4142 -85.6681 238° Southwest 268 308 40,000  Level Indianapolis Center
06:57PM 39.3744 -85.7514 238° Southwest 272 313 40,000  Level Indianapolis Center
06:58PM 39.3331 -85.8339 237° Southwest 273 314 40,000 -60 Level Indianapolis Center
06:59PM 39.2831 -85.9336 237° Southwest 275 316 39,900  Descending Indianapolis Center
07:00PM 39.2417 -86.0186 238° Southwest 279 321 40,000  Climbing Indianapolis Center
07:01PM 39.2031 -86.1017 239° Southwest 271 312 40,000  Level Indianapolis Center
07:02PM 39.1633 -86.1856 239° Southwest 274 315 40,000 -60 Level Indianapolis Center
07:03PM 39.1233 -86.2692 238° Southwest 275 316 39,900  Descending Indianapolis Center
07:04PM 39.0819 -86.3522 237° Southwest 275 316 40,000  Climbing Indianapolis Center
07:05PM 39.0411 -86.4350 238° Southwest 274 315 39,900 -60 Descending Indianapolis Center
07:06PM 39.0006 -86.5167 237° Southwest 272 313 39,900  Level Indianapolis Center
07:07PM 38.9536 -86.6111 237° Southwest 272 313 40,000  Climbing Indianapolis Center
07:08PM 38.9133 -86.6925 238° Southwest 270 311 39,900 -60 Descending Indianapolis Center
07:09PM 38.8722 -86.7733 237° Southwest 271 312 39,900  Level Indianapolis Center
07:10PM 38.8311 -86.8550 237° Southwest 271 312 40,000  Climbing Indianapolis Center
07:11PM 38.7894 -86.9364 237° Southwest 272 313 40,000  Level Indianapolis Center
07:12PM 38.7486 -87.0183 237° Southwest 272 313 40,000  Level Indianapolis Center
07:13PM 38.7072 -87.1000 237° Southwest 273 314 40,000  Level Indianapolis Center
07:14PM 38.6589 -87.1994 238° Southwest 275 316 40,000  Level Indianapolis Center
07:15PM 38.6167 -87.2808 236° Southwest 275 316 40,000  Level Indianapolis Center
07:16PM 38.5753 -87.3639 238° Southwest 277 319 40,000  Level Indianapolis Center
07:17PM 38.5331 -87.4472 237° Southwest 280 322 40,000  Level Indianapolis Center
07:18PM 38.4922 -87.5303 238° Southwest 277 319 40,000  Level Indianapolis Center
07:19PM 38.4494 -87.6119 236° Southwest 278 320 40,000  Level Indianapolis Center
07:20PM 38.4078 -87.6947 237° Southwest 277 319 40,000  Level Indianapolis Center
07:21PM 38.3644 -87.7758 236° Southwest 278 320 40,000  Level Indianapolis Center
07:22PM 38.3125 -87.8753 236° Southwest 281 323 40,000  Level Indianapolis Center
07:23PM 38.2703 -87.9586 237° Southwest 280 322 40,000 -60 Level Indianapolis Center
07:24PM 38.2269 -88.0417 236° Southwest 281 323 39,900 -60 Descending Indianapolis Center
07:25PM 38.1833 -88.1242 236° Southwest 282 325 39,900  Level Indianapolis Center
07:26PM 38.1400 -88.2078 237° Southwest 282 325 39,900  Level Indianapolis Center
07:27PM 38.0956 -88.2928 236° Southwest 286 329 39,900  Level Indianapolis Center
07:28PM 38.0519 -88.3772 237° Southwest 285 328 40,000  Climbing Indianapolis Center
07:29PM 38.0075 -88.4617 236° Southwest 287 330 40,000  Level Indianapolis Center
07:30PM 37.9622 -88.5469 236° Southwest 290 334 40,000  Level Indianapolis Center
07:31PM 37.9175 -88.6319 236° Southwest 290 334 40,000  Level Indianapolis Center
07:32PM 37.8706 -88.7178 235° Southwest 294 338 40,000  Level Indianapolis Center
07:33PM 37.8147 -88.8200 235° Southwest 294 338 40,000  Level Indianapolis Center
07:35PM 37.7692 -88.9061 236° Southwest 294 338 40,000  Level Indianapolis Center
07:36PM 37.7239 -88.9933 237° Southwest 295 339 40,000  Level Indianapolis Center
07:37PM 37.6789 -89.0806 237° Southwest 295 339 40,000  Level Indianapolis Center
07:38PM 37.6336 -89.1656 236° Southwest 292 336 40,000  Level Indianapolis Center
07:39PM 37.5792 -89.2736 238° Southwest 305 351 40,000  Level Memphis Center
07:40PM 37.5319 -89.3606 236° Southwest 305 351 40,000  Level Memphis Center
07:41PM 37.4847 -89.4422 234° Southwest 305 351 40,000  Level Memphis Center
07:42PM 37.4394 -89.5314 237° Southwest 310 357 40,000  Level Memphis Center
07:43PM 37.3881 -89.6286 236° Southwest 310 357 40,000  Level Memphis Center
07:44PM 37.3428 -89.7125 236° Southwest 310 357 40,000  Level Memphis Center
07:45PM 37.2953 -89.7989 235° Southwest 310 357 40,000  Level Memphis Center
07:46PM 37.2478 -89.8853 235° Southwest 310 357 40,000  Level Memphis Center
07:47PM 37.2000 -89.9714 235° Southwest 310 357 40,000  Level Memphis Center
07:48PM 37.1525 -90.0575 235° Southwest 310 357 40,000  Level Memphis Center
07:49PM 37.1047 -90.1411 234° Southwest 310 357 40,000 -60 Level Memphis Center
07:50PM 37.0589 -90.2294 237° Southwest 310 357 39,900  Descending Memphis Center
07:50PM 37.0356 -90.2619 228° Southwest 301 346 40,000  Climbing Kansas City Center
07:51PM 36.9878 -90.3469 235° Southwest 300 345 39,900  Descending Kansas City Center
07:52PM 36.9392 -90.4322 235° Southwest 300 345 40,000  Climbing Kansas City Center
07:54PM 36.8631 -90.5722 236° Southwest 310 357 40,000  Level Memphis Center
07:55PM 36.8150 -90.6575 235° Southwest 310 357 40,000  Level Memphis Center
07:56PM 36.7667 -90.7453 236° Southwest 310 357 40,000  Level Memphis Center
07:57PM 36.7164 -90.8306 234° Southwest 310 357 40,000  Level Memphis Center
07:58PM 36.6661 -90.9183 234° Southwest 310 357 40,000  Level Memphis Center
07:59PM 36.6178 -91.0058 235° Southwest 310 357 40,000 -60 Level Memphis Center
08:00PM 36.5692 -91.0933 235° Southwest 310 357 39,900 -60 Descending Memphis Center
08:01PM 36.5228 -91.1703 233° Southwest 310 357 39,900  Level Memphis Center
08:02PM 36.4703 -91.2653 236° Southwest 315 362 40,000  Climbing Memphis Center
08:03PM 36.4194 -91.3525 234° Southwest 310 357 40,000  Level Memphis Center
08:04PM 36.3686 -91.4394 234° Southwest 310 357 40,000  Level Memphis Center
08:05PM 36.3200 -91.5289 236° Southwest 315 362 40,000 -60 Level Memphis Center
08:06PM 36.2692 -91.6131 233° Southwest 315 362 39,900 -60 Descending Memphis Center
08:07PM 36.2203 -91.7025 236° Southwest 310 357 39,900  Level Memphis Center
08:08PM 36.1714 -91.7864 234° Southwest 310 357 39,900  Level Memphis Center
08:09PM 36.1161 -91.8703 231° Southwest 310 357 39,900  Level Memphis Center
08:10PM 36.0650 -91.9567 234° Southwest 310 357 39,900  Level Memphis Center
08:11PM 36.0181 -92.0431 236° Southwest 310 357 40,000  Climbing Memphis Center
08:12PM 35.9731 -92.1267 236° Southwest 305 351 40,000  Level Memphis Center
08:13PM 35.9239 -92.2103 234° Southwest 305 351 40,000 -60 Level Memphis Center
08:14PM 35.8725 -92.2961 234° Southwest 310 357 39,900  Descending Memphis Center
08:15PM 35.8211 -92.3819 234° Southwest 310 357 40,000  Climbing Memphis Center
08:16PM 35.7697 -92.4653 233° Southwest 310 357 40,000  Level Memphis Center
08:17PM 35.7203 -92.5508 235° Southwest 310 357 40,000  Level Memphis Center
08:18PM 35.6686 -92.6364 233° Southwest 310 357 40,000  Level Memphis Center
08:19PM 35.6192 -92.7219 235° Southwest 310 357 40,000 -60 Level Memphis Center
08:20PM 35.5736 -92.8075 237° Southwest 322 371 39,900  Descending Memphis Center
08:21PM 35.5219 -92.8953 234° Southwest 327 376 40,000  Climbing Memphis Center
08:22PM 35.4700 -92.9803 233° Southwest 322 371 39,900  Descending Memphis Center
08:23PM 35.4161 -93.0600 230° Southwest 322 371 40,000  Climbing Memphis Center
08:24PM 35.3664 -93.1503 236° Southwest 316 364 40,000  Level Memphis Center
08:25PM 35.3144 -93.2325 232° Southwest 316 364 40,000  Level Memphis Center
08:26PM 35.2622 -93.3169 233° Southwest 316 364 40,000  Level Memphis Center
08:27PM 35.2058 -93.4067 232° Southwest 316 364 40,000  Level Memphis Center
08:28PM 35.1558 -93.4886 233° Southwest 316 364 40,000  Level Memphis Center
08:29PM 35.1014 -93.5778 233° Southwest 316 364 40,000 -60 Level Memphis Center
08:30PM 35.0472 -93.6619 232° Southwest 316 364 39,900  Descending Memphis Center
08:31PM 34.9967 -93.7489 235° Southwest 316 364 40,000  Climbing Memphis Center
08:32PM 34.9422 -93.8353 232° Southwest 316 364 40,000  Level Memphis Center
08:33PM 34.8917 -93.9269 236° Southwest 322 371 40,000  Level Memphis Center
08:35PM 34.7606 -94.1356 233° Southwest 317 365 40,000  Level Fort Worth Center
08:36PM 34.7067 -94.2258 234° Southwest 326 375 40,000  Level Fort Worth Center
08:37PM 34.6525 -94.3136 233° Southwest 333 383 40,000  Level Fort Worth Center
08:38PM 34.5961 -94.3989 231° Southwest 333 383 40,000  Level Fort Worth Center
08:39PM 34.5419 -94.4892 234° Southwest 328 377 40,000  Level Fort Worth Center
08:40PM 34.4856 -94.5767 232° Southwest 328 377 40,000 -600 Level Fort Worth Center
08:41PM 34.4314 -94.6667 234° Southwest 333 383 38,800 -1,200 Descending Fort Worth Center
08:42PM 34.3808 -94.7486 233° Southwest 327 376 37,700 -1,140 Descending Fort Worth Center
08:43PM 34.3261 -94.8283 230° Southwest 320 368 36,600 -1,080 Descending Fort Worth Center
08:44PM 34.2717 -94.9128 232° Southwest 313 360 35,600 -1,200 Descending Fort Worth Center
08:45PM 34.2211 -94.9947 233° Southwest 313 360 34,300 -1,320 Descending Fort Worth Center
08:46PM 34.1683 -95.0742 231° Southwest 313 360 33,000 -1,260 Descending Fort Worth Center
08:47PM 34.1175 -95.1531 232° Southwest 307 353 31,800 -1,140 Descending Fort Worth Center
08:48PM 34.0708 -95.2297 234° Southwest 301 346 30,800 -1,260 Descending Fort Worth Center
08:49PM 34.0222 -95.3036 232° Southwest 301 346 29,300 -1,800 Descending Fort Worth Center
08:50PM 33.9753 -95.3722 230° Southwest 285 328 27,300 -2,280 Descending Fort Worth Center
08:51PM 33.9264 -95.4461 231° Southwest 285 328 24,800 -2,520 Descending Fort Worth Center
08:52PM 33.8775 -95.5197 231° Southwest 280 322 22,300 -2,520 Descending Fort Worth Center
08:53PM 33.8306 -95.5981 234° Southwest 274 315 19,800 -2,100 Descending Fort Worth Center
08:54PM 33.7836 -95.6742 233° Southwest 274 315 18,200 -1,320 Descending Fort Worth Center
08:55PM 33.7408 -95.7425 233° Southwest 274 315 17,200 -1,080 Descending Fort Worth Center
08:56PM 33.6917 -95.8158 231° Southwest 274 315 16,100 -1,320 Descending Fort Worth Center
08:57PM 33.6361 -95.8917 229° Southwest 286 329 14,600 -1,980 Descending Fort Worth Center
08:58PM 33.5850 -95.9747 234° Southwest 308 354 12,200 -2,640 Descending Fort Worth Center
08:59PM 33.5400 -96.0503 234° Southwest 299 344 9,400 -2,880 Descending Fort Worth Center
09:00PM 33.4928 -96.1283 234° Southwest 287 330 6,500 -2,700 Descending Fort Worth Center
09:01PM 33.4453 -96.1911 228° Southwest 275 316 4,000 -1,260 Descending Fort Worth Center
09:02PM 33.4000 -96.2589 231° Southwest 265 305 4,000 -240 Level Fort Worth Center
09:03PM 33.3608 -96.3192 232° Southwest 253 291 3,600 -540 Descending Fort Worth Center
09:04PM 33.3197 -96.3817 232° Southwest 247 284 3,000 -360 Descending Fort Worth Center
09:05PM 33.2833 -96.4333 230° Southwest 251 289 3,000 -120 Level Dallas / Fort Worth TRACON
09:06PM 33.2500 -96.5333 248° West 244 281 2,800 -480 Descending Dallas / Fort Worth TRACON
09:07PM 33.2167 -96.5667 220° Southwest 151 174 2,000 -900 Descending Dallas / Fort Worth TRACON